Time;durP1;ratioP1;P1;durP2;ratioP2;P2;SDS_P1;SDS_P2;PMS_P1;PMS_P2;Temp;Humidity;BMP_temperature;BMP_pressure;BME280_temperature;BME280_humidity;BME280_pressure;Samples;Min_cycle;Max_cycle;Signal;HPM_P1;HPM_P2
2023/08/21 00:00:13;;;;;;;;;;;24.40;72.90;;;;;;4172217;28;19932;-46
2023/08/21 00:02:53;;;;;;;;;;;24.40;72.90;;;;;;4171773;28;19977;-47
2023/08/21 00:05:34;;;;;;;;;;;24.30;72.90;;;;;;4179509;28;19981;-48
2023/08/21 00:08:16;;;;;;;;;;;24.40;72.90;;;;;;4183525;28;19977;-49
2023/08/21 00:10:57;;;;;;;;;;;24.40;72.90;;;;;;4175486;28;19930;-50
2023/08/21 00:13:38;;;;;;;;;;;24.30;72.90;;;;;;4188542;28;20287;-46
2023/08/21 00:16:19;;;;;;;;;;;24.30;73.00;;;;;;4187722;28;19985;-46
2023/08/21 00:19:00;;;;;;;;;;;24.30;72.90;;;;;;4188164;28;19973;-47
2023/08/21 00:21:40;;;;;;;;;;;24.30;73.00;;;;;;4189393;28;19939;-48
2023/08/21 00:24:22;;;;;;;;;;;24.30;73.00;;;;;;4187895;28;19939;-48
2023/08/21 00:27:04;;;;;;;;;;;24.30;73.00;;;;;;4188396;28;19936;-47
2023/08/21 00:29:45;;;;;;;;;;;24.30;73.00;;;;;;4186696;28;19971;-50
2023/08/21 00:32:26;;;;;;;;;;;24.20;72.90;;;;;;4186358;28;20066;-47
2023/08/21 00:35:07;;;;;;;;;;;24.20;73.00;;;;;;4175522;28;20046;-49
2023/08/21 00:37:48;;;;;;;;;;;24.20;73.10;;;;;;4187208;28;19935;-49
2023/08/21 00:40:31;;;;;;;;;;;24.20;74.00;;;;;;4187808;28;19939;-46
2023/08/21 00:43:13;;;;;;;;;;;24.20;73.20;;;;;;4186939;28;19932;-48
2023/08/21 00:45:53;;;;;;;;;;;24.20;73.20;;;;;;4186313;28;20307;-47
2023/08/21 00:48:35;;;;;;;;;;;24.10;74.10;;;;;;4187843;28;19931;-48
2023/08/21 00:51:16;;;;;;;;;;;24.20;73.20;;;;;;4171040;28;20290;-46
2023/08/21 00:53:57;;;;;;;;;;;24.20;73.30;;;;;;4187756;28;20411;-45
2023/08/21 00:56:40;;;;;;;;;;;24.10;73.20;;;;;;4187659;28;19947;-47
2023/08/21 00:59:21;;;;;;;;;;;24.10;73.20;;;;;;4186589;28;20311;-47
2023/08/21 01:02:03;;;;;;;;;;;24.10;73.20;;;;;;4191060;28;20398;-46
2023/08/21 01:04:44;;;;;;;;;;;24.10;74.10;;;;;;4193374;28;19931;-47
2023/08/21 01:07:27;;;;;;;;;;;24.10;73.20;;;;;;4173800;28;19975;-46
2023/08/21 01:10:10;;;;;;;;;;;24.10;73.20;;;;;;4186124;28;19947;-49
2023/08/21 01:12:58;;;;;;;;;;;24.10;74.10;;;;;;4174666;28;20351;-46
2023/08/21 01:15:40;;;;;;;;;;;24.10;73.20;;;;;;4191685;28;20406;-46
2023/08/21 01:18:21;;;;;;;;;;;24.00;73.10;;;;;;4230347;27;19935;-47
2023/08/21 01:21:04;;;;;;;;;;;24.00;73.10;;;;;;4207578;28;19930;-49
2023/08/21 01:23:47;;;;;;;;;;;24.00;73.10;;;;;;4207137;28;19948;-45
2023/08/21 01:26:27;;;;;;;;;;;24.00;73.10;;;;;;4191476;28;19947;-46
2023/08/21 01:29:08;;;;;;;;;;;24.00;73.10;;;;;;4189527;28;19932;-46
2023/08/21 01:31:52;;;;;;;;;;;24.00;74.00;;;;;;4176946;28;20375;-46
2023/08/21 01:34:34;;;;;;;;;;;24.00;73.10;;;;;;4189574;28;19996;-46
2023/08/21 01:37:15;;;;;;;;;;;23.90;73.10;;;;;;4190920;28;19931;-47
2023/08/21 01:39:58;;;;;;;;;;;23.90;73.10;;;;;;4189932;28;19936;-48
2023/08/21 01:42:39;;;;;;;;;;;23.90;73.10;;;;;;4190287;28;19935;-46
2023/08/21 01:45:20;;;;;;;;;;;23.90;74.00;;;;;;4205242;28;19978;-48
2023/08/21 01:48:01;;;;;;;;;;;23.90;73.10;;;;;;4190812;28;19931;-48
2023/08/21 01:50:43;;;;;;;;;;;23.90;73.10;;;;;;4189848;28;19973;-48
2023/08/21 01:53:24;;;;;;;;;;;23.90;74.00;;;;;;4188175;28;19935;-51
2023/08/21 01:56:06;;;;;;;;;;;23.90;73.10;;;;;;4188704;28;19931;-47
2023/08/21 01:58:46;;;;;;;;;;;23.90;73.10;;;;;;4174290;28;20334;-48
2023/08/21 02:01:27;;;;;;;;;;;23.90;74.00;;;;;;4188236;28;20390;-54
2023/08/21 02:04:08;;;;;;;;;;;23.90;73.10;;;;;;4187638;28;20821;-53
2023/08/21 02:06:48;;;;;;;;;;;23.80;73.10;;;;;;4205066;28;19970;-52
2023/08/21 02:09:29;;;;;;;;;;;23.80;73.00;;;;;;4205892;28;20012;-53
2023/08/21 02:12:11;;;;;;;;;;;23.80;73.00;;;;;;4206743;28;19934;-53
2023/08/21 02:14:52;;;;;;;;;;;23.80;73.00;;;;;;4201106;28;20268;-52
2023/08/21 02:17:33;;;;;;;;;;;23.80;73.10;;;;;;4189351;28;20300;-51
2023/08/21 02:20:14;;;;;;;;;;;23.80;73.10;;;;;;4204109;27;19931;-51
2023/08/21 02:22:54;;;;;;;;;;;23.80;73.00;;;;;;4206871;28;19939;-52
2023/08/21 02:25:35;;;;;;;;;;;23.80;73.00;;;;;;4204348;28;19962;-51
2023/08/21 02:28:17;;;;;;;;;;;23.80;73.90;;;;;;4196321;28;19931;-51
2023/08/21 02:31:01;;;;;;;;;;;23.70;73.00;;;;;;4195560;28;19960;-49
2023/08/21 02:33:42;;;;;;;;;;;23.70;73.00;;;;;;4204599;28;20385;-50
2023/08/21 02:36:23;;;;;;;;;;;23.70;73.90;;;;;;4190090;28;19946;-50
2023/08/21 02:39:05;;;;;;;;;;;23.70;73.00;;;;;;4200286;28;20125;-49
2023/08/21 02:41:45;;;;;;;;;;;23.70;73.00;;;;;;4188677;28;19932;-50
2023/08/21 02:44:28;;;;;;;;;;;23.70;73.00;;;;;;4189466;28;19931;-49
2023/08/21 02:47:08;;;;;;;;;;;23.60;72.90;;;;;;4189365;28;19931;-52
2023/08/21 02:49:49;;;;;;;;;;;23.70;73.00;;;;;;4205941;28;20435;-50
2023/08/21 02:52:30;;;;;;;;;;;23.60;73.90;;;;;;4204686;28;19943;-49
2023/08/21 02:55:10;;;;;;;;;;;23.60;72.90;;;;;;4203378;28;19931;-50
2023/08/21 02:57:51;;;;;;;;;;;23.60;72.90;;;;;;4205652;28;19931;-48
2023/08/21 03:00:33;;;;;;;;;;;23.60;72.90;;;;;;4155917;28;19935;-50
2023/08/21 03:03:14;;;;;;;;;;;23.60;72.90;;;;;;4186227;28;20041;-47
2023/08/21 03:05:55;;;;;;;;;;;23.60;73.00;;;;;;4173873;28;20402;-49
2023/08/21 03:08:35;;;;;;;;;;;23.60;73.00;;;;;;4173078;28;19979;-51
2023/08/21 03:11:17;;;;;;;;;;;23.60;73.00;;;;;;4172311;28;19932;-52
2023/08/21 03:13:57;;;;;;;;;;;23.50;73.00;;;;;;4171685;28;20014;-53
2023/08/21 03:16:40;;;;;;;;;;;23.50;73.00;;;;;;4174257;28;20394;-52
2023/08/21 03:19:20;;;;;;;;;;;23.50;73.00;;;;;;4196658;28;19935;-51
2023/08/21 03:22:01;;;;;;;;;;;23.50;73.00;;;;;;4205106;28;19934;-52
2023/08/21 03:24:42;;;;;;;;;;;23.50;73.10;;;;;;4203740;28;20396;-49
2023/08/21 03:27:24;;;;;;;;;;;23.50;73.10;;;;;;4204054;28;19931;-51
2023/08/21 03:30:05;;;;;;;;;;;23.50;73.10;;;;;;4203493;28;19971;-52
2023/08/21 03:32:49;;;;;;;;;;;23.40;73.00;;;;;;4205323;28;19957;-51
2023/08/21 03:35:30;;;;;;;;;;;23.50;73.10;;;;;;4188116;28;19931;-50
2023/08/21 03:38:10;;;;;;;;;;;23.40;73.10;;;;;;4188295;28;20378;-53
2023/08/21 03:40:57;;;;;;;;;;;23.40;73.20;;;;;;4187398;28;19949;-49
2023/08/21 03:43:38;;;;;;;;;;;23.40;73.10;;;;;;4194903;28;20057;-50
2023/08/21 03:46:19;;;;;;;;;;;23.40;73.10;;;;;;4203693;28;20012;-49
2023/08/21 03:49:02;;;;;;;;;;;23.40;74.00;;;;;;4204086;27;20461;-53
2023/08/21 03:51:42;;;;;;;;;;;23.40;73.20;;;;;;4187004;28;20029;-51
2023/08/21 03:54:23;;;;;;;;;;;23.40;73.20;;;;;;4176235;28;20499;-52
2023/08/21 03:57:04;;;;;;;;;;;23.40;74.10;;;;;;4171716;28;19932;-49
2023/08/21 03:59:45;;;;;;;;;;;23.40;73.10;;;;;;4170832;28;20383;-52
2023/08/21 04:02:26;;;;;;;;;;;23.30;73.10;;;;;;4171202;28;19932;-53
2023/08/21 04:05:10;;;;;;;;;;;23.30;73.10;;;;;;4170903;28;19959;-54
2023/08/21 04:07:51;;;;;;;;;;;23.30;73.10;;;;;;4198550;28;19935;-50
2023/08/21 04:10:32;;;;;;;;;;;23.30;73.10;;;;;;4203712;27;20041;-53
2023/08/21 04:13:13;;;;;;;;;;;23.30;73.10;;;;;;4203848;28;19935;-56
2023/08/21 04:15:55;;;;;;;;;;;23.30;73.10;;;;;;4193650;28;20295;-53
2023/08/21 04:18:36;;;;;;;;;;;23.30;73.20;;;;;;4171609;28;19935;-51
2023/08/21 04:21:22;;;;;;;;;;;23.30;73.10;;;;;;4186607;28;19930;-53
2023/08/21 04:24:04;;;;;;;;;;;23.30;73.10;;;;;;4175097;28;19951;-54
2023/08/21 04:26:45;;;;;;;;;;;23.20;73.10;;;;;;4204741;28;19930;-50
2023/08/21 04:29:26;;;;;;;;;;;23.20;73.10;;;;;;4203458;28;19935;-51
2023/08/21 04:32:07;;;;;;;;;;;23.20;73.10;;;;;;4204360;28;19936;-51
2023/08/21 04:34:48;;;;;;;;;;;23.20;73.10;;;;;;4181690;28;19932;-53
2023/08/21 04:37:30;;;;;;;;;;;23.20;73.10;;;;;;4169445;28;20062;-55
2023/08/21 04:40:11;;;;;;;;;;;23.10;73.10;;;;;;4156288;28;19932;-54
2023/08/21 04:42:52;;;;;;;;;;;23.20;73.10;;;;;;4169820;28;20082;-53
2023/08/21 04:45:37;;;;;;;;;;;23.10;73.10;;;;;;4170211;28;19936;-54
2023/08/21 04:48:18;;;;;;;;;;;23.20;73.20;;;;;;4191916;28;20073;-54
2023/08/21 04:51:01;;;;;;;;;;;23.10;74.00;;;;;;4189200;28;20008;-54
2023/08/21 04:53:43;;;;;;;;;;;23.10;73.10;;;;;;4199695;28;19931;-54
2023/08/21 04:56:29;;;;;;;;;;;23.10;73.40;;;;;;4178148;28;19936;-54
2023/08/21 04:59:10;;;;;;;;;;;23.10;73.40;;;;;;4192689;28;20062;-53
2023/08/21 05:01:51;;;;;;;;;;;23.10;73.40;;;;;;4176460;28;20713;-50
2023/08/21 05:04:32;;;;;;;;;;;23.10;73.60;;;;;;4198400;27;19938;-54
2023/08/21 05:07:13;;;;;;;;;;;23.10;73.90;;;;;;4170072;28;19931;-53
2023/08/21 05:09:55;;;;;;;;;;;23.10;74.30;;;;;;4170660;28;19931;-55
2023/08/21 05:12:36;;;;;;;;;;;23.10;74.50;;;;;;4202500;28;19935;-54
2023/08/21 05:15:17;;;;;;;;;;;23.10;74.60;;;;;;4202664;28;19937;-52
2023/08/21 05:17:59;;;;;;;;;;;23.10;74.50;;;;;;4202907;28;19939;-48
2023/08/21 05:20:41;;;;;;;;;;;23.10;74.20;;;;;;4204658;28;20008;-49
2023/08/21 05:23:21;;;;;;;;;;;23.10;73.90;;;;;;4201293;28;20390;-50
2023/08/21 05:26:06;;;;;;;;;;;23.10;73.70;;;;;;4180556;28;20062;-52
2023/08/21 05:28:47;;;;;;;;;;;23.10;73.40;;;;;;4185547;28;19931;-51
2023/08/21 05:31:28;;;;;;;;;;;23.10;73.20;;;;;;4169635;28;19935;-50
2023/08/21 05:34:09;;;;;;;;;;;23.10;72.80;;;;;;4177702;28;19942;-54
2023/08/21 05:36:50;;;;;;;;;;;23.10;72.50;;;;;;4154210;28;19932;-53
2023/08/21 05:39:31;;;;;;;;;;;23.20;72.30;;;;;;4170044;28;19932;-50
2023/08/21 05:42:13;;;;;;;;;;;23.20;72.10;;;;;;4194674;28;20337;-49
2023/08/21 05:44:55;;;;;;;;;;;23.20;71.80;;;;;;4195576;28;19939;-51
2023/08/21 05:47:37;;;;;;;;;;;23.20;71.60;;;;;;4183943;28;19936;-50
2023/08/21 05:50:17;;;;;;;;;;;23.20;71.50;;;;;;4202145;28;19980;-50
2023/08/21 05:52:58;;;;;;;;;;;23.20;71.30;;;;;;4188152;28;19932;-48
2023/08/21 05:55:39;;;;;;;;;;;23.30;71.10;;;;;;4184803;28;20276;-49
2023/08/21 05:58:22;;;;;;;;;;;23.30;71.10;;;;;;4184641;28;20472;-49
2023/08/21 06:01:04;;;;;;;;;;;23.30;70.90;;;;;;4186777;28;20069;-50
2023/08/21 06:03:46;;;;;;;;;;;23.30;70.70;;;;;;4186938;28;19932;-50
2023/08/21 06:06:37;;;;;;;;;;;23.30;70.70;;;;;;4184545;28;19932;-49
2023/08/21 06:09:20;;;;;;;;;;;23.40;70.70;;;;;;4188812;28;20018;-49
2023/08/21 06:12:01;;;;;;;;;;;23.40;70.70;;;;;;4207161;28;20068;-50
2023/08/21 06:14:44;;;;;;;;;;;23.40;70.70;;;;;;4197833;28;20288;-49
2023/08/21 06:17:28;;;;;;;;;;;23.40;70.70;;;;;;4188631;28;20073;-50
2023/08/21 06:20:09;;;;;;;;;;;23.40;70.70;;;;;;4172690;28;19932;-49
2023/08/21 06:22:49;;;;;;;;;;;23.40;70.70;;;;;;4190125;28;19943;-51
2023/08/21 06:25:31;;;;;;;;;;;23.40;70.80;;;;;;4200188;28;20270;-50
2023/08/21 06:28:11;;;;;;;;;;;23.50;71.00;;;;;;4204386;28;19931;-49
2023/08/21 06:30:58;;;;;;;;;;;23.50;71.10;;;;;;4186687;28;19974;-49
2023/08/21 06:33:39;;;;;;;;;;;23.60;71.20;;;;;;4199827;28;19931;-50
2023/08/21 06:36:19;;;;;;;;;;;23.60;71.30;;;;;;4174086;28;19936;-52
2023/08/21 06:39:00;;;;;;;;;;;23.70;71.50;;;;;;4185593;28;19939;-50
2023/08/21 06:41:41;;;;;;;;;;;23.70;71.50;;;;;;4187752;28;20398;-49
2023/08/21 06:44:26;;;;;;;;;;;23.80;71.50;;;;;;4174600;28;19962;-50
2023/08/21 06:47:08;;;;;;;;;;;23.80;71.50;;;;;;4189596;27;19935;-50
2023/08/21 06:49:50;;;;;;;;;;;23.80;71.40;;;;;;4196556;28;19950;-53
2023/08/21 06:52:31;;;;;;;;;;;23.90;71.50;;;;;;4175319;28;20074;-52
2023/08/21 06:55:12;;;;;;;;;;;23.90;71.40;;;;;;4188551;28;19931;-51
2023/08/21 06:57:53;;;;;;;;;;;23.90;71.40;;;;;;4188139;28;20010;-53
2023/08/21 07:00:34;;;;;;;;;;;23.90;71.20;;;;;;4188053;28;19936;-53
2023/08/21 07:03:16;;;;;;;;;;;24.00;71.20;;;;;;4190632;28;20522;-53
2023/08/21 07:05:57;;;;;;;;;;;24.10;71.20;;;;;;4189281;28;19934;-50
2023/08/21 07:08:40;;;;;;;;;;;24.10;71.10;;;;;;4189587;28;19967;-51
2023/08/21 07:11:20;;;;;;;;;;;24.10;71.10;;;;;;4189122;28;20413;-52
2023/08/21 07:14:01;;;;;;;;;;;24.10;71.10;;;;;;4189579;28;19962;-54
2023/08/21 07:16:42;;;;;;;;;;;24.10;71.00;;;;;;4188731;28;19974;-50
2023/08/21 07:19:24;;;;;;;;;;;24.20;71.20;;;;;;4188918;28;19936;-51
2023/08/21 07:22:05;;;;;;;;;;;24.20;72.40;;;;;;4180844;28;19931;-52
2023/08/21 07:24:46;;;;;;;;;;;24.20;71.70;;;;;;4172179;28;19931;-53
2023/08/21 07:27:27;;;;;;;;;;;24.20;71.80;;;;;;4165600;28;20162;-49
2023/08/21 07:30:08;;;;;;;;;;;24.30;72.10;;;;;;4190360;28;20493;-53
2023/08/21 07:32:50;;;;;;;;;;;24.30;72.10;;;;;;4171975;28;19936;-50
2023/08/21 07:35:32;;;;;;;;;;;24.30;72.20;;;;;;4180021;28;20034;-49
2023/08/21 07:38:13;;;;;;;;;;;24.30;72.30;;;;;;4188878;28;19935;-49
2023/08/21 07:41:03;;;;;;;;;;;24.30;72.30;;;;;;4188519;28;20058;-52
2023/08/21 07:43:44;;;;;;;;;;;24.30;72.40;;;;;;4181226;28;19940;-53
2023/08/21 07:46:25;;;;;;;;;;;24.30;72.40;;;;;;4183322;28;19935;-53
2023/08/21 07:49:06;;;;;;;;;;;24.30;72.40;;;;;;4190540;28;20394;-53
2023/08/21 07:51:49;;;;;;;;;;;24.30;72.60;;;;;;4188829;28;19931;-50
2023/08/21 07:54:29;;;;;;;;;;;24.30;72.50;;;;;;4187259;28;20023;-53
2023/08/21 07:57:10;;;;;;;;;;;24.30;73.60;;;;;;4183419;28;19931;-55
2023/08/21 07:59:51;;;;;;;;;;;24.30;72.50;;;;;;4199833;28;19935;-54
2023/08/21 08:02:34;;;;;;;;;;;24.30;72.40;;;;;;4204337;28;19931;-53
2023/08/21 08:05:14;;;;;;;;;;;24.30;72.30;;;;;;4188465;28;19978;-54
2023/08/21 08:07:56;;;;;;;;;;;24.30;72.20;;;;;;4204053;28;20335;-55
2023/08/21 08:10:38;;;;;;;;;;;24.30;72.20;;;;;;4205442;27;19935;-54
2023/08/21 08:13:18;;;;;;;;;;;24.30;72.10;;;;;;4203303;28;20402;-53
2023/08/21 08:15:59;;;;;;;;;;;24.30;72.10;;;;;;4188948;28;19935;-53
2023/08/21 08:18:40;;;;;;;;;;;24.30;71.90;;;;;;4176274;28;19932;-54
2023/08/21 08:21:21;;;;;;;;;;;24.30;71.60;;;;;;4172200;28;19981;-53
2023/08/21 08:24:03;;;;;;;;;;;24.30;71.30;;;;;;4170825;28;20067;-54
2023/08/21 08:26:43;;;;;;;;;;;24.30;71.20;;;;;;4173049;28;19936;-54
2023/08/21 08:29:24;;;;;;;;;;;24.30;70.90;;;;;;4174733;28;19931;-53
2023/08/21 08:32:05;;;;;;;;;;;24.30;70.70;;;;;;4169919;28;19982;-50
2023/08/21 08:34:46;;;;;;;;;;;24.40;70.50;;;;;;4172851;28;20403;-51
2023/08/21 08:37:27;;;;;;;;;;;24.40;70.50;;;;;;4186976;28;19936;-51
2023/08/21 08:40:11;;;;;;;;;;;24.40;70.30;;;;;;4162671;28;19936;-54
2023/08/21 08:42:51;;;;;;;;;;;24.40;70.20;;;;;;4169229;28;19932;-50
2023/08/21 08:45:33;;;;;;;;;;;24.40;70.00;;;;;;4187457;28;19981;-51
2023/08/21 08:48:14;;;;;;;;;;;24.40;70.80;;;;;;4186636;28;20429;-50
2023/08/21 08:50:55;;;;;;;;;;;24.50;70.00;;;;;;4186625;28;19939;-51
2023/08/21 08:53:39;;;;;;;;;;;24.50;69.80;;;;;;4185664;28;19997;-51
2023/08/21 08:56:21;;;;;;;;;;;24.50;69.70;;;;;;4180343;28;19936;-50
2023/08/21 08:59:01;;;;;;;;;;;24.50;69.70;;;;;;4170935;28;19952;-53
2023/08/21 09:01:42;;;;;;;;;;;24.50;69.50;;;;;;4187274;28;19969;-55
2023/08/21 09:04:23;;;;;;;;;;;24.60;70.30;;;;;;4186744;28;19954;-53
2023/08/21 09:07:08;;;;;;;;;;;24.60;69.40;;;;;;4169935;28;19936;-55
2023/08/21 09:09:50;;;;;;;;;;;24.60;69.30;;;;;;4171187;28;19932;-55
2023/08/21 09:12:33;;;;;;;;;;;24.60;69.10;;;;;;4179487;28;20441;-55
2023/08/21 09:15:14;;;;;;;;;;;24.70;69.00;;;;;;4196018;28;19935;-55
2023/08/21 09:17:55;;;;;;;;;;;24.70;68.80;;;;;;4170286;28;20047;-54
2023/08/21 09:20:36;;;;;;;;;;;24.70;68.50;;;;;;4178152;28;20287;-54
2023/08/21 09:23:17;;;;;;;;;;;24.70;68.40;;;;;;4187575;28;19932;-54
2023/08/21 09:25:58;;;;;;;;;;;24.70;68.20;;;;;;4183296;28;20403;-51
2023/08/21 09:28:41;;;;;;;;;;;24.70;68.20;;;;;;4185759;28;20395;-57
2023/08/21 09:31:25;;;;;;;;;;;24.80;67.80;;;;;;4186081;28;19936;-58
2023/08/21 09:34:06;;;;;;;;;;;24.80;67.30;;;;;;4187531;28;20325;-57
2023/08/21 09:36:55;;;;;;;;;;;24.80;66.90;;;;;;4188820;28;19935;-56
2023/08/21 09:39:36;;;;;;;;;;;24.80;66.80;;;;;;4190445;28;20398;-56
2023/08/21 09:42:19;;;;;;;;;;;24.90;66.60;;;;;;4207041;28;19935;-57
2023/08/21 09:45:01;;;;;;;;;;;24.90;66.50;;;;;;4207515;28;19947;-58
2023/08/21 09:47:44;;;;;;;;;;;24.90;66.10;;;;;;4206970;27;19935;-58
2023/08/21 09:50:25;;;;;;;;;;;25.00;66.00;;;;;;4206578;28;19931;-59
2023/08/21 09:53:07;;;;;;;;;;;25.00;65.40;;;;;;4200239;28;19932;-59
2023/08/21 09:56:08;;;;;;;;;;;25.00;65.30;;;;;;4206190;28;20011;-58
2023/08/21 09:58:49;;;;;;;;;;;25.00;65.00;;;;;;4197890;28;20062;-57
2023/08/21 10:01:32;;;;;;;;;;;25.00;64.70;;;;;;4189800;28;19981;-57
2023/08/21 10:04:13;;;;;;;;;;;25.10;64.30;;;;;;4189517;28;19935;-58
2023/08/21 10:06:56;;;;;;;;;;;25.10;64.30;;;;;;4189181;28;20327;-58
2023/08/21 10:09:37;;;;;;;;;;;25.10;64.30;;;;;;4203707;28;19931;-58
2023/08/21 10:12:18;;;;;;;;;;;25.20;64.50;;;;;;4203469;27;19935;-58
2023/08/21 10:14:59;;;;;;;;;;;25.20;64.60;;;;;;4174447;28;19943;-58
2023/08/21 10:17:42;;;;;;;;;;;25.30;64.70;;;;;;4173495;28;19931;-58
2023/08/21 10:20:23;;;;;;;;;;;25.30;64.70;;;;;;4170723;28;19994;-58
2023/08/21 10:23:04;;;;;;;;;;;25.30;64.60;;;;;;4173613;28;19932;-58
2023/08/21 10:25:45;;;;;;;;;;;25.30;64.50;;;;;;4173964;28;20280;-57
2023/08/21 10:28:26;;;;;;;;;;;25.40;64.40;;;;;;4204717;28;20077;-58
2023/08/21 10:31:26;;;;;;;;;;;25.40;64.30;;;;;;4206063;28;19930;-58
2023/08/21 10:34:09;;;;;;;;;;;25.40;64.10;;;;;;4188215;28;19977;-58
2023/08/21 10:37:09;;;;;;;;;;;25.40;64.00;;;;;;4192770;28;19931;-58
2023/08/21 10:39:57;;;;;;;;;;;25.50;63.70;;;;;;4188671;28;19935;-58
2023/08/21 10:42:39;;;;;;;;;;;25.50;63.60;;;;;;4211879;28;20295;-58
2023/08/21 10:45:20;;;;;;;;;;;25.50;63.50;;;;;;4189548;28;20448;-57
2023/08/21 10:48:01;;;;;;;;;;;25.50;64.10;;;;;;4176263;28;19930;-58
2023/08/21 10:50:43;;;;;;;;;;;25.50;63.20;;;;;;4206587;28;19931;-58
2023/08/21 10:53:24;;;;;;;;;;;25.50;62.70;;;;;;4185344;28;19935;-58
2023/08/21 10:56:06;;;;;;;;;;;25.50;63.60;;;;;;4189774;28;20009;-58
2023/08/21 10:58:47;;;;;;;;;;;25.60;62.70;;;;;;4173057;28;19940;-58
2023/08/21 11:01:42;;;;;;;;;;;25.60;62.60;;;;;;4159042;28;20471;-58
2023/08/21 11:04:23;;;;;;;;;;;25.60;62.50;;;;;;4172622;28;20776;-57
2023/08/21 11:07:05;;;;;;;;;;;25.60;62.30;;;;;;4195189;28;19933;-56
2023/08/21 11:09:46;;;;;;;;;;;25.60;62.10;;;;;;4198270;28;19939;-60
2023/08/21 11:12:27;;;;;;;;;;;25.60;62.10;;;;;;4188922;28;19943;-58
2023/08/21 11:15:08;;;;;;;;;;;25.70;62.10;;;;;;4189969;28;19935;-58
2023/08/21 11:17:52;;;;;;;;;;;25.70;62.10;;;;;;4176679;28;19931;-58
2023/08/21 11:20:34;;;;;;;;;;;25.70;62.10;;;;;;4188998;28;20062;-58
2023/08/21 11:23:16;;;;;;;;;;;25.70;61.90;;;;;;4188802;28;19951;-58
2023/08/21 11:25:57;;;;;;;;;;;25.80;61.90;;;;;;4174889;28;19932;-58
2023/08/21 11:28:46;;;;;;;;;;;25.80;61.50;;;;;;4187860;28;20382;-57
2023/08/21 11:31:28;;;;;;;;;;;25.80;61.70;;;;;;4187725;28;20126;-58
2023/08/21 11:34:09;;;;;;;;;;;25.80;61.20;;;;;;4188515;28;19932;-58
2023/08/21 11:37:04;;;;;;;;;;;25.80;61.40;;;;;;4171506;28;19987;-57
2023/08/21 11:39:46;;;;;;;;;;;25.80;61.50;;;;;;4155402;28;20480;-56
2023/08/21 11:42:30;;;;;;;;;;;25.80;61.70;;;;;;4172011;28;20018;-56
2023/08/21 11:45:11;;;;;;;;;;;25.90;62.00;;;;;;4160126;28;19932;-56
2023/08/21 11:47:51;;;;;;;;;;;25.90;61.80;;;;;;4169521;28;19971;-56
2023/08/21 11:50:32;;;;;;;;;;;25.90;62.50;;;;;;4171475;28;19936;-55
2023/08/21 11:53:13;;;;;;;;;;;25.90;61.60;;;;;;4170683;28;19931;-55
2023/08/21 11:55:55;;;;;;;;;;;25.90;61.50;;;;;;4200684;28;19935;-57
2023/08/21 11:58:38;;;;;;;;;;;25.90;61.30;;;;;;4202900;27;19931;-58
2023/08/21 12:01:19;;;;;;;;;;;25.90;61.20;;;;;;4204537;28;20073;-59
2023/08/21 12:04:00;;;;;;;;;;;25.90;61.10;;;;;;4178075;28;19935;-58
2023/08/21 12:06:44;;;;;;;;;;;25.90;60.80;;;;;;4171806;28;19931;-58
2023/08/21 12:09:25;;;;;;;;;;;25.90;60.70;;;;;;4171835;28;19936;-59
2023/08/21 12:12:08;;;;;;;;;;;25.90;60.50;;;;;;4171710;28;19978;-59
2023/08/21 12:14:49;;;;;;;;;;;25.90;60.60;;;;;;4171484;28;19931;-57
2023/08/21 12:17:29;;;;;;;;;;;25.90;60.50;;;;;;4175537;28;19952;-59
2023/08/21 12:20:11;;;;;;;;;;;25.90;60.50;;;;;;4188267;28;19931;-58
2023/08/21 12:22:52;;;;;;;;;;;25.90;60.20;;;;;;4178196;28;20035;-58
2023/08/21 12:25:32;;;;;;;;;;;25.90;60.20;;;;;;4171708;28;19931;-57
2023/08/21 12:28:14;;;;;;;;;;;25.90;60.20;;;;;;4163772;28;19936;-58
2023/08/21 12:30:55;;;;;;;;;;;25.90;60.20;;;;;;4171936;28;19936;-57
2023/08/21 12:33:36;;;;;;;;;;;26.00;59.90;;;;;;4177328;28;20280;-58
2023/08/21 12:36:16;;;;;;;;;;;25.90;59.80;;;;;;4182598;28;19932;-47
2023/08/21 12:38:57;;;;;;;;;;;25.90;59.90;;;;;;4199952;28;19939;-48
2023/08/21 12:41:38;;;;;;;;;;;26.00;59.90;;;;;;4171088;28;20063;-47
2023/08/21 12:44:19;;;;;;;;;;;26.00;60.00;;;;;;4184844;28;20024;-48
2023/08/21 12:47:01;;;;;;;;;;;26.00;60.00;;;;;;4184195;28;19962;-51
2023/08/21 12:49:42;;;;;;;;;;;26.00;60.00;;;;;;4175965;28;20482;-49
2023/08/21 12:52:22;;;;;;;;;;;26.00;60.10;;;;;;4188087;28;19935;-50
2023/08/21 12:55:06;;;;;;;;;;;26.00;60.00;;;;;;4171297;28;20299;-47
2023/08/21 12:57:46;;;;;;;;;;;26.00;60.00;;;;;;4171586;28;19932;-49
2023/08/21 13:00:28;;;;;;;;;;;26.10;59.90;;;;;;4187610;28;20299;-47
2023/08/21 13:03:10;;;;;;;;;;;26.10;59.80;;;;;;4204538;28;20064;-47
2023/08/21 13:05:50;;;;;;;;;;;26.10;59.70;;;;;;4202575;28;19931;-47
2023/08/21 13:08:31;;;;;;;;;;;26.20;59.80;;;;;;4183947;28;19936;-48
2023/08/21 13:11:12;;;;;;;;;;;26.20;59.00;;;;;;4187457;28;19935;-47
2023/08/21 13:13:53;;;;;;;;;;;26.20;59.00;;;;;;4188025;28;19973;-46
2023/08/21 13:16:35;;;;;;;;;;;26.30;59.30;;;;;;4203148;28;19935;-49
2023/08/21 13:19:16;;;;;;;;;;;26.30;59.00;;;;;;4188125;28;20066;-46
2023/08/21 13:21:57;;;;;;;;;;;26.30;59.00;;;;;;4194303;28;19935;-47
2023/08/21 13:24:38;;;;;;;;;;;26.30;59.10;;;;;;4192084;28;19939;-51
2023/08/21 13:27:18;;;;;;;;;;;26.30;59.10;;;;;;4187818;28;19933;-49
2023/08/21 13:30:00;;;;;;;;;;;26.40;58.40;;;;;;4187593;28;19939;-47
2023/08/21 13:32:43;;;;;;;;;;;26.40;58.00;;;;;;4187613;28;19932;-47
2023/08/21 13:35:24;;;;;;;;;;;26.40;58.00;;;;;;4176435;28;19935;-48
2023/08/21 13:38:08;;;;;;;;;;;26.40;58.20;;;;;;4172463;28;20026;-48
2023/08/21 13:40:49;;;;;;;;;;;26.40;58.30;;;;;;4187346;28;19935;-50
2023/08/21 13:43:29;;;;;;;;;;;26.40;58.20;;;;;;4191902;28;19939;-47
2023/08/21 13:46:13;;;;;;;;;;;26.40;58.20;;;;;;4190600;28;19978;-48
2023/08/21 13:48:55;;;;;;;;;;;26.40;58.20;;;;;;4197676;28;19935;-46
2023/08/21 13:51:36;;;;;;;;;;;26.50;58.20;;;;;;4203905;28;20295;-50
2023/08/21 13:54:16;;;;;;;;;;;26.40;58.20;;;;;;4193048;28;19936;-51
2023/08/21 13:56:59;;;;;;;;;;;26.50;58.20;;;;;;4186037;28;19936;-54
2023/08/21 13:59:41;;;;;;;;;;;26.40;58.20;;;;;;4173790;28;19931;-54
2023/08/21 14:02:22;;;;;;;;;;;26.40;58.30;;;;;;4158814;28;19938;-48
2023/08/21 14:05:05;;;;;;;;;;;26.40;58.40;;;;;;4159532;28;19931;-54
2023/08/21 14:07:46;;;;;;;;;;;26.40;59.00;;;;;;4162611;28;20066;-51
2023/08/21 14:10:27;;;;;;;;;;;26.40;58.30;;;;;;4159868;28;20231;-50
2023/08/21 14:13:08;;;;;;;;;;;26.50;58.10;;;;;;4177903;28;19935;-49
2023/08/21 14:15:49;;;;;;;;;;;26.50;57.70;;;;;;4156572;28;19936;-48
2023/08/21 14:18:30;;;;;;;;;;;26.50;57.70;;;;;;4170369;28;19939;-52
2023/08/21 14:21:12;;;;;;;;;;;26.50;57.40;;;;;;4182880;28;20445;-52
2023/08/21 14:23:53;;;;;;;;;;;26.50;57.60;;;;;;4204416;28;19970;-51
2023/08/21 14:26:34;;;;;;;;;;;26.50;57.90;;;;;;4206623;28;20271;-48
2023/08/21 14:29:15;;;;;;;;;;;26.50;57.90;;;;;;4191821;28;19944;-38
2023/08/21 14:31:57;;;;;;;;;;;26.50;57.90;;;;;;4187180;28;19981;-38
2023/08/21 14:34:38;;;;;;;;;;;26.50;58.00;;;;;;4189530;28;19935;-38
2023/08/21 14:37:21;;;;;;;;;;;26.50;58.00;;;;;;4185561;28;20620;-39
2023/08/21 14:40:06;;;;;;;;;;;26.50;58.10;;;;;;4190006;28;19931;-38
2023/08/21 14:42:47;;;;;;;;;;;26.50;58.10;;;;;;4180673;28;20003;-50
2023/08/21 14:45:27;;;;;;;;;;;26.50;58.00;;;;;;4205311;28;19931;-45
2023/08/21 14:48:08;;;;;;;;;;;26.50;58.30;;;;;;4205800;28;19931;-48
2023/08/21 14:50:49;;;;;;;;;;;26.50;58.00;;;;;;4206208;28;19939;-38
2023/08/21 14:53:31;;;;;;;;;;;26.50;58.20;;;;;;4203547;28;19989;-38
2023/08/21 14:56:12;;;;;;;;;;;26.50;58.20;;;;;;4190578;28;20013;-38
2023/08/21 14:58:53;;;;;;;;;;;26.60;58.10;;;;;;4199396;28;19931;-38
2023/08/21 15:01:34;;;;;;;;;;;26.60;57.50;;;;;;4173377;28;19982;-38
2023/08/21 15:04:15;;;;;;;;;;;26.60;57.40;;;;;;4169080;28;20033;-38
2023/08/21 15:06:56;;;;;;;;;;;26.60;57.50;;;;;;4188993;28;19935;-38
2023/08/21 15:09:38;;;;;;;;;;;26.70;58.40;;;;;;4190186;28;20387;-38
2023/08/21 15:12:19;;;;;;;;;;;26.70;58.80;;;;;;4189129;28;20283;-52
2023/08/21 15:14:59;;;;;;;;;;;26.70;59.40;;;;;;4188778;28;19935;-46
2023/08/21 15:17:40;;;;;;;;;;;26.70;59.40;;;;;;4186848;28;19935;-45
2023/08/21 15:20:21;;;;;;;;;;;26.80;60.20;;;;;;4175494;28;20395;-48
2023/08/21 15:23:02;;;;;;;;;;;26.80;60.80;;;;;;4193243;28;19951;-45
2023/08/21 15:25:44;;;;;;;;;;;26.70;61.10;;;;;;4205187;28;19988;-44
2023/08/21 15:28:25;;;;;;;;;;;26.70;61.40;;;;;;4205465;28;20070;-47
2023/08/21 15:31:07;;;;;;;;;;;26.70;62.00;;;;;;4188722;28;21401;-48
2023/08/21 15:33:48;;;;;;;;;;;26.70;62.60;;;;;;4197765;28;20473;-45
2023/08/21 15:36:29;;;;;;;;;;;26.70;62.70;;;;;;4195702;28;19931;-45
2023/08/21 15:39:10;;;;;;;;;;;26.70;62.90;;;;;;4171074;28;19982;-45